Main page
METAR-TAF:

METAR-TAF

Airports :

Isles of Scilly, England

St Mary's Airport

latitude: 49-55N, longitude: 006-18W, elevation: 31 m

Current weather observation

The report was made 13 hours and 58 minutes ago, at 12:20 UTC
Wind 10 kt from the North/Northwest
Temperature 9°C
Humidity 61%
Pressure 1025 hPa
Visibility 10 km or more
Scattered clouds at a height of 2600 ft
Broken clouds at a height of 3600 ft

METAR: EGHE 161220Z 33010KT 9999 SCT026 BKN036 09/02 Q1025

Time: 02:18 (02:18 UTC)

Forecast

The report was made 15 hours and 13 minutes ago, at 11:05 UTC
Forecast valid from 16 at 12 UTC to 16 at 18 UTC
Wind 12 kt from the North/Northwest
Visibility 10 km or more
Few clouds at a height of 1800 ft
Scattered clouds at a height of 2500 ft
Probability 30% :
Temporary
from 16 at 16 UTC to 16 at 18 UTC
Visibility: 7000 m
Broken clouds at a height of 1400 ft
rain showers

TAF: EGHE 161105Z 1612/1618 33012KT 9999 FEW018 SCT025 PROB30 TEMPO 1616/1618 7000 SHRA BKN014

Weather observations and forecasts of more than 4000 airports (METAR and TAF reports).

The available stations are represented by yellow and red dots on the map.

Hover mouse over dot to see the name of the station.

Then click to see weather observations and forecasts.

To change the map : click on the green buttons with a black cross to zoom in, on the green button with a dash to zoom out, or on the green arrows for adjacent maps.


METAR-TAF: